sensor_id;sensor_type;location;lat;lon;timestamp;pressure;altitude;pressure_sealevel;temperature
10598;BMP180;5346;48.766;8.674;2022-11-20T00:02:25;93416.00;;;2.50
10598;BMP180;5346;48.766;8.674;2022-11-20T00:04:55;93420.00;;;2.50
10598;BMP180;5346;48.766;8.674;2022-11-20T00:07:30;93421.00;;;2.70
10598;BMP180;5346;48.766;8.674;2022-11-20T00:09:58;93426.00;;;2.70
10598;BMP180;5346;48.766;8.674;2022-11-20T00:12:25;93420.00;;;2.60
10598;BMP180;5346;48.766;8.674;2022-11-20T00:15:00;93429.00;;;2.70
10598;BMP180;5346;48.766;8.674;2022-11-20T00:17:29;93425.00;;;2.70
10598;BMP180;5346;48.766;8.674;2022-11-20T00:19:57;93424.00;;;2.90
10598;BMP180;5346;48.766;8.674;2022-11-20T00:22:30;93420.00;;;2.80
10598;BMP180;5346;48.766;8.674;2022-11-20T00:24:58;93424.00;;;2.60
10598;BMP180;5346;48.766;8.674;2022-11-20T00:27:25;93435.00;;;2.70
10598;BMP180;5346;48.766;8.674;2022-11-20T00:29:59;93426.00;;;2.60
10598;BMP180;5346;48.766;8.674;2022-11-20T00:32:40;93424.00;;;2.50
10598;BMP180;5346;48.766;8.674;2022-11-20T00:35:16;93424.00;;;2.50
10598;BMP180;5346;48.766;8.674;2022-11-20T00:37:44;93426.00;;;2.40
10598;BMP180;5346;48.766;8.674;2022-11-20T00:40:12;93433.00;;;2.60
10598;BMP180;5346;48.766;8.674;2022-11-20T00:42:47;93441.00;;;2.40
10598;BMP180;5346;48.766;8.674;2022-11-20T00:45:14;93431.00;;;2.30
10598;BMP180;5346;48.766;8.674;2022-11-20T00:47:42;93434.00;;;2.30
10598;BMP180;5346;48.766;8.674;2022-11-20T00:50:22;93428.00;;;2.20
10598;BMP180;5346;48.766;8.674;2022-11-20T00:52:50;93434.00;;;2.30
10598;BMP180;5346;48.766;8.674;2022-11-20T00:55:24;93440.00;;;2.40
10598;BMP180;5346;48.766;8.674;2022-11-20T00:57:51;93428.00;;;2.50
10598;BMP180;5346;48.766;8.674;2022-11-20T01:00:19;93429.00;;;2.50
10598;BMP180;5346;48.766;8.674;2022-11-20T01:02:55;93439.00;;;2.40
10598;BMP180;5346;48.766;8.674;2022-11-20T01:05:22;93430.00;;;2.40
10598;BMP180;5346;48.766;8.674;2022-11-20T01:07:50;93433.00;;;2.50
10598;BMP180;5346;48.766;8.674;2022-11-20T01:10:24;93433.00;;;2.50
10598;BMP180;5346;48.766;8.674;2022-11-20T01:12:58;93426.00;;;2.50
10598;BMP180;5346;48.766;8.674;2022-11-20T01:16:24;93426.00;;;2.50
10598;BMP180;5346;48.766;8.674;2022-11-20T01:18:51;93427.00;;;2.60
10598;BMP180;5346;48.766;8.674;2022-11-20T01:21:27;93428.00;;;2.60
10598;BMP180;5346;48.766;8.674;2022-11-20T01:23:56;93429.00;;;2.60
10598;BMP180;5346;48.766;8.674;2022-11-20T01:26:26;93417.00;;;2.70
10598;BMP180;5346;48.766;8.674;2022-11-20T01:29:01;93423.00;;;2.80
10598;BMP180;5346;48.766;8.674;2022-11-20T01:31:34;93423.00;;;2.80
10598;BMP180;5346;48.766;8.674;2022-11-20T01:34:15;93429.00;;;2.90
10598;BMP180;5346;48.766;8.674;2022-11-20T01:36:43;93422.00;;;2.60
10598;BMP180;5346;48.766;8.674;2022-11-20T01:39:23;93424.00;;;2.60
10598;BMP180;5346;48.766;8.674;2022-11-20T01:41:52;93416.00;;;2.70
10598;BMP180;5346;48.766;8.674;2022-11-20T01:44:52;93426.00;;;2.60
10598;BMP180;5346;48.766;8.674;2022-11-20T01:47:39;93423.00;;;2.60
10598;BMP180;5346;48.766;8.674;2022-11-20T01:50:18;93419.00;;;2.60
10598;BMP180;5346;48.766;8.674;2022-11-20T01:52:59;93422.00;;;2.70
10598;BMP180;5346;48.766;8.674;2022-11-20T01:55:44;93413.00;;;2.90
10598;BMP180;5346;48.766;8.674;2022-11-20T01:58:13;93417.00;;;2.90
10598;BMP180;5346;48.766;8.674;2022-11-20T02:00:47;93418.00;;;3.00
10598;BMP180;5346;48.766;8.674;2022-11-20T02:03:19;93412.00;;;3.00
10598;BMP180;5346;48.766;8.674;2022-11-20T02:06:02;93404.00;;;3.10
10598;BMP180;5346;48.766;8.674;2022-11-20T02:08:38;93411.00;;;3.10
10598;BMP180;5346;48.766;8.674;2022-11-20T02:11:14;93397.00;;;3.20
10598;BMP180;5346;48.766;8.674;2022-11-20T02:13:54;93409.00;;;3.10
10598;BMP180;5346;48.766;8.674;2022-11-20T02:16:25;93416.00;;;3.10
10598;BMP180;5346;48.766;8.674;2022-11-20T02:18:56;93412.00;;;3.20
10598;BMP180;5346;48.766;8.674;2022-11-20T02:21:56;93423.00;;;3.30
10598;BMP180;5346;48.766;8.674;2022-11-20T02:24:26;93407.00;;;3.20
10598;BMP180;5346;48.766;8.674;2022-11-20T02:27:07;93418.00;;;3.20
10598;BMP180;5346;48.766;8.674;2022-11-20T02:29:59;93414.00;;;3.00
10598;BMP180;5346;48.766;8.674;2022-11-20T02:32:36;93423.00;;;3.30
10598;BMP180;5346;48.766;8.674;2022-11-20T02:35:08;93419.00;;;3.30
10598;BMP180;5346;48.766;8.674;2022-11-20T02:37:43;93420.00;;;3.20
10598;BMP180;5346;48.766;8.674;2022-11-20T02:40:11;93411.00;;;3.20
10598;BMP180;5346;48.766;8.674;2022-11-20T02:42:39;93416.00;;;3.10
10598;BMP180;5346;48.766;8.674;2022-11-20T02:45:15;93411.00;;;3.10
10598;BMP180;5346;48.766;8.674;2022-11-20T02:47:43;93418.00;;;3.30
10598;BMP180;5346;48.766;8.674;2022-11-20T02:50:10;93427.00;;;3.30
10598;BMP180;5346;48.766;8.674;2022-11-20T02:52:45;93424.00;;;3.30
10598;BMP180;5346;48.766;8.674;2022-11-20T02:55:13;93428.00;;;3.50
10598;BMP180;5346;48.766;8.674;2022-11-20T02:57:40;93423.00;;;3.50
10598;BMP180;5346;48.766;8.674;2022-11-20T03:00:15;93432.00;;;3.40
10598;BMP180;5346;48.766;8.674;2022-11-20T03:02:42;93423.00;;;3.70
10598;BMP180;5346;48.766;8.674;2022-11-20T03:05:10;93428.00;;;3.60
10598;BMP180;5346;48.766;8.674;2022-11-20T03:07:44;93428.00;;;3.50
10598;BMP180;5346;48.766;8.674;2022-11-20T03:10:12;93434.00;;;3.40
10598;BMP180;5346;48.766;8.674;2022-11-20T03:12:39;93423.00;;;3.60
10598;BMP180;5346;48.766;8.674;2022-11-20T03:15:14;93433.00;;;3.40
10598;BMP180;5346;48.766;8.674;2022-11-20T03:17:41;93433.00;;;3.70
10598;BMP180;5346;48.766;8.674;2022-11-20T03:20:09;93426.00;;;3.70
10598;BMP180;5346;48.766;8.674;2022-11-20T03:22:45;93429.00;;;3.60
10598;BMP180;5346;48.766;8.674;2022-11-20T03:25:13;93438.00;;;3.60
10598;BMP180;5346;48.766;8.674;2022-11-20T03:27:40;93425.00;;;3.70
10598;BMP180;5346;48.766;8.674;2022-11-20T03:30:14;93430.00;;;3.50
10598;BMP180;5346;48.766;8.674;2022-11-20T03:32:42;93425.00;;;3.50
10598;BMP180;5346;48.766;8.674;2022-11-20T03:35:10;93418.00;;;3.50
10598;BMP180;5346;48.766;8.674;2022-11-20T03:37:45;93414.00;;;3.60
10598;BMP180;5346;48.766;8.674;2022-11-20T03:40:13;93427.00;;;3.80
10598;BMP180;5346;48.766;8.674;2022-11-20T03:42:41;93421.00;;;3.70
10598;BMP180;5346;48.766;8.674;2022-11-20T03:45:21;93433.00;;;3.80
10598;BMP180;5346;48.766;8.674;2022-11-20T03:47:49;93429.00;;;3.70
10598;BMP180;5346;48.766;8.674;2022-11-20T03:50:16;93422.00;;;3.80
10598;BMP180;5346;48.766;8.674;2022-11-20T03:52:50;93416.00;;;3.70
10598;BMP180;5346;48.766;8.674;2022-11-20T03:55:17;93412.00;;;3.70
10598;BMP180;5346;48.766;8.674;2022-11-20T03:57:45;93414.00;;;3.80
10598;BMP180;5346;48.766;8.674;2022-11-20T04:00:19;93428.00;;;3.70
10598;BMP180;5346;48.766;8.674;2022-11-20T04:02:46;93426.00;;;3.90
10598;BMP180;5346;48.766;8.674;2022-11-20T04:05:14;93420.00;;;3.90
10598;BMP180;5346;48.766;8.674;2022-11-20T04:07:48;93418.00;;;3.80
10598;BMP180;5346;48.766;8.674;2022-11-20T04:10:18;93413.00;;;3.80
10598;BMP180;5346;48.766;8.674;2022-11-20T04:12:46;93414.00;;;3.90
10598;BMP180;5346;48.766;8.674;2022-11-20T04:15:20;93413.00;;;3.90
10598;BMP180;5346;48.766;8.674;2022-11-20T04:17:47;93417.00;;;3.80
10598;BMP180;5346;48.766;8.674;2022-11-20T04:20:15;93408.00;;;4.00
10598;BMP180;5346;48.766;8.674;2022-11-20T04:22:52;93411.00;;;4.00
10598;BMP180;5346;48.766;8.674;2022-11-20T04:25:20;93403.00;;;4.00
10598;BMP180;5346;48.766;8.674;2022-11-20T04:27:48;93411.00;;;4.10
10598;BMP180;5346;48.766;8.674;2022-11-20T04:30:22;93401.00;;;4.00
10598;BMP180;5346;48.766;8.674;2022-11-20T04:32:49;93403.00;;;4.00
10598;BMP180;5346;48.766;8.674;2022-11-20T04:35:17;93394.00;;;4.00
10598;BMP180;5346;48.766;8.674;2022-11-20T04:37:52;93395.00;;;3.90
10598;BMP180;5346;48.766;8.674;2022-11-20T04:40:19;93397.00;;;4.00
10598;BMP180;5346;48.766;8.674;2022-11-20T04:42:47;93410.00;;;4.00
10598;BMP180;5346;48.766;8.674;2022-11-20T04:45:24;93412.00;;;3.90
10598;BMP180;5346;48.766;8.674;2022-11-20T04:47:52;93402.00;;;4.00
10598;BMP180;5346;48.766;8.674;2022-11-20T04:50:29;93403.00;;;4.00
10598;BMP180;5346;48.766;8.674;2022-11-20T04:52:56;93390.00;;;4.10
10598;BMP180;5346;48.766;8.674;2022-11-20T04:55:24;93394.00;;;4.00
10598;BMP180;5346;48.766;8.674;2022-11-20T04:57:58;93393.00;;;4.00
10598;BMP180;5346;48.766;8.674;2022-11-20T05:00:26;93395.00;;;4.00
10598;BMP180;5346;48.766;8.674;2022-11-20T05:02:53;93397.00;;;4.00
10598;BMP180;5346;48.766;8.674;2022-11-20T05:05:28;93404.00;;;3.80
10598;BMP180;5346;48.766;8.674;2022-11-20T05:07:59;93394.00;;;3.90
10598;BMP180;5346;48.766;8.674;2022-11-20T05:10:27;93394.00;;;3.90
10598;BMP180;5346;48.766;8.674;2022-11-20T05:13:08;93402.00;;;3.80
10598;BMP180;5346;48.766;8.674;2022-11-20T05:15:35;93404.00;;;3.80
10598;BMP180;5346;48.766;8.674;2022-11-20T05:18:09;93400.00;;;3.70
10598;BMP180;5346;48.766;8.674;2022-11-20T05:20:36;93394.00;;;3.90
10598;BMP180;5346;48.766;8.674;2022-11-20T05:23:03;93397.00;;;3.90
10598;BMP180;5346;48.766;8.674;2022-11-20T05:25:38;93397.00;;;3.60
10598;BMP180;5346;48.766;8.674;2022-11-20T05:28:05;93393.00;;;3.70
10598;BMP180;5346;48.766;8.674;2022-11-20T05:30:33;93401.00;;;3.80
10598;BMP180;5346;48.766;8.674;2022-11-20T05:33:08;93394.00;;;3.70
10598;BMP180;5346;48.766;8.674;2022-11-20T05:35:36;93387.00;;;3.80
10598;BMP180;5346;48.766;8.674;2022-11-20T05:38:04;93390.00;;;3.90
10598;BMP180;5346;48.766;8.674;2022-11-20T05:40:38;93400.00;;;3.80
10598;BMP180;5346;48.766;8.674;2022-11-20T05:43:05;93397.00;;;3.80
10598;BMP180;5346;48.766;8.674;2022-11-20T05:45:33;93402.00;;;3.70
10598;BMP180;5346;48.766;8.674;2022-11-20T05:48:07;93398.00;;;3.70
10598;BMP180;5346;48.766;8.674;2022-11-20T05:50:34;93399.00;;;3.70
10598;BMP180;5346;48.766;8.674;2022-11-20T05:53:02;93401.00;;;3.80
10598;BMP180;5346;48.766;8.674;2022-11-20T05:55:36;93396.00;;;3.90
10598;BMP180;5346;48.766;8.674;2022-11-20T05:58:03;93394.00;;;4.00
10598;BMP180;5346;48.766;8.674;2022-11-20T06:00:32;93401.00;;;3.90
10598;BMP180;5346;48.766;8.674;2022-11-20T06:03:06;93403.00;;;4.00
10598;BMP180;5346;48.766;8.674;2022-11-20T06:05:34;93394.00;;;3.90
10598;BMP180;5346;48.766;8.674;2022-11-20T06:08:01;93386.00;;;3.90
10598;BMP180;5346;48.766;8.674;2022-11-20T06:10:35;93389.00;;;4.10
10598;BMP180;5346;48.766;8.674;2022-11-20T06:13:05;93389.00;;;4.00
10598;BMP180;5346;48.766;8.674;2022-11-20T06:15:50;93385.00;;;3.90
10598;BMP180;5346;48.766;8.674;2022-11-20T06:18:18;93385.00;;;3.90
10598;BMP180;5346;48.766;8.674;2022-11-20T06:21:01;93384.00;;;4.00
10598;BMP180;5346;48.766;8.674;2022-11-20T06:23:30;93397.00;;;4.00
10598;BMP180;5346;48.766;8.674;2022-11-20T06:26:11;93386.00;;;4.00
10598;BMP180;5346;48.766;8.674;2022-11-20T06:28:42;93389.00;;;4.00
10598;BMP180;5346;48.766;8.674;2022-11-20T06:31:18;93387.00;;;4.00
10598;BMP180;5346;48.766;8.674;2022-11-20T06:33:46;93391.00;;;4.00
10598;BMP180;5346;48.766;8.674;2022-11-20T06:36:18;93387.00;;;3.90
10598;BMP180;5346;48.766;8.674;2022-11-20T06:38:53;93386.00;;;3.90
10598;BMP180;5346;48.766;8.674;2022-11-20T06:41:21;93390.00;;;4.10
10598;BMP180;5346;48.766;8.674;2022-11-20T06:43:50;93394.00;;;4.10
10598;BMP180;5346;48.766;8.674;2022-11-20T06:46:23;93392.00;;;4.20
10598;BMP180;5346;48.766;8.674;2022-11-20T06:48:51;93400.00;;;4.00
10598;BMP180;5346;48.766;8.674;2022-11-20T06:51:19;93399.00;;;4.00
10598;BMP180;5346;48.766;8.674;2022-11-20T06:53:53;93407.00;;;4.10
10598;BMP180;5346;48.766;8.674;2022-11-20T06:56:20;93407.00;;;4.10
10598;BMP180;5346;48.766;8.674;2022-11-20T06:58:48;93402.00;;;4.00
10598;BMP180;5346;48.766;8.674;2022-11-20T07:01:22;93396.00;;;4.00
10598;BMP180;5346;48.766;8.674;2022-11-20T07:03:50;93418.00;;;4.00
10598;BMP180;5346;48.766;8.674;2022-11-20T07:06:21;93413.00;;;4.10
10598;BMP180;5346;48.766;8.674;2022-11-20T07:08:54;93426.00;;;4.00
10598;BMP180;5346;48.766;8.674;2022-11-20T07:11:28;93430.00;;;3.80
10598;BMP180;5346;48.766;8.674;2022-11-20T07:14:10;93429.00;;;3.90
10598;BMP180;5346;48.766;8.674;2022-11-20T07:16:39;93431.00;;;3.70
10598;BMP180;5346;48.766;8.674;2022-11-20T07:19:07;93440.00;;;3.50
10598;BMP180;5346;48.766;8.674;2022-11-20T07:21:41;93442.00;;;3.50
10598;BMP180;5346;48.766;8.674;2022-11-20T07:24:11;93450.00;;;3.30
10598;BMP180;5346;48.766;8.674;2022-11-20T07:26:39;93447.00;;;3.30
10598;BMP180;5346;48.766;8.674;2022-11-20T07:29:13;93447.00;;;3.50
10598;BMP180;5346;48.766;8.674;2022-11-20T07:31:41;93445.00;;;3.40
10598;BMP180;5346;48.766;8.674;2022-11-20T07:34:09;93450.00;;;3.30
10598;BMP180;5346;48.766;8.674;2022-11-20T07:36:44;93451.00;;;3.20
10598;BMP180;5346;48.766;8.674;2022-11-20T07:39:11;93448.00;;;3.30
10598;BMP180;5346;48.766;8.674;2022-11-20T07:41:39;93454.00;;;3.30
10598;BMP180;5346;48.766;8.674;2022-11-20T07:44:13;93449.00;;;3.30
10598;BMP180;5346;48.766;8.674;2022-11-20T07:46:44;93450.00;;;3.30
10598;BMP180;5346;48.766;8.674;2022-11-20T07:49:11;93451.00;;;3.20
10598;BMP180;5346;48.766;8.674;2022-11-20T07:51:46;93454.00;;;3.20
10598;BMP180;5346;48.766;8.674;2022-11-20T07:54:18;93455.00;;;3.20
10598;BMP180;5346;48.766;8.674;2022-11-20T07:56:46;93458.00;;;3.10
10598;BMP180;5346;48.766;8.674;2022-11-20T07:59:19;93460.00;;;3.40
10598;BMP180;5346;48.766;8.674;2022-11-20T08:01:49;93457.00;;;3.40
10598;BMP180;5346;48.766;8.674;2022-11-20T08:04:17;93450.00;;;3.40
10598;BMP180;5346;48.766;8.674;2022-11-20T08:06:52;93455.00;;;3.50
10598;BMP180;5346;48.766;8.674;2022-11-20T08:09:21;93457.00;;;3.40
10598;BMP180;5346;48.766;8.674;2022-11-20T08:12:06;93463.00;;;3.40
10598;BMP180;5346;48.766;8.674;2022-11-20T08:14:52;93470.00;;;3.50
10598;BMP180;5346;48.766;8.674;2022-11-20T08:17:26;93472.00;;;3.40
10598;BMP180;5346;48.766;8.674;2022-11-20T08:19:53;93477.00;;;3.40
10598;BMP180;5346;48.766;8.674;2022-11-20T08:22:21;93472.00;;;3.40
10598;BMP180;5346;48.766;8.674;2022-11-20T08:24:55;93480.00;;;3.40
10598;BMP180;5346;48.766;8.674;2022-11-20T08:27:22;93473.00;;;3.50
10598;BMP180;5346;48.766;8.674;2022-11-20T08:29:50;93477.00;;;3.70
10598;BMP180;5346;48.766;8.674;2022-11-20T08:32:25;93481.00;;;3.70
10598;BMP180;5346;48.766;8.674;2022-11-20T08:34:53;93488.00;;;3.70
10598;BMP180;5346;48.766;8.674;2022-11-20T08:37:23;93472.00;;;3.60
10598;BMP180;5346;48.766;8.674;2022-11-20T08:39:58;93474.00;;;3.60
10598;BMP180;5346;48.766;8.674;2022-11-20T08:42:26;93479.00;;;3.80
10598;BMP180;5346;48.766;8.674;2022-11-20T08:44:53;93484.00;;;3.80
10598;BMP180;5346;48.766;8.674;2022-11-20T08:47:28;93492.00;;;4.10
10598;BMP180;5346;48.766;8.674;2022-11-20T08:49:56;93493.00;;;4.00
10598;BMP180;5346;48.766;8.674;2022-11-20T08:52:23;93488.00;;;4.00
10598;BMP180;5346;48.766;8.674;2022-11-20T08:55:02;93499.00;;;3.80
10598;BMP180;5346;48.766;8.674;2022-11-20T08:57:32;93487.00;;;3.80
10598;BMP180;5346;48.766;8.674;2022-11-20T09:00:08;93492.00;;;3.80
10598;BMP180;5346;48.766;8.674;2022-11-20T09:02:39;93491.00;;;3.90
10598;BMP180;5346;48.766;8.674;2022-11-20T09:05:07;93493.00;;;3.90
10598;BMP180;5346;48.766;8.674;2022-11-20T09:07:41;93496.00;;;3.90
10598;BMP180;5346;48.766;8.674;2022-11-20T09:10:09;93504.00;;;3.90
10598;BMP180;5346;48.766;8.674;2022-11-20T09:12:51;93500.00;;;3.90
10598;BMP180;5346;48.766;8.674;2022-11-20T09:15:25;93500.00;;;4.00
10598;BMP180;5346;48.766;8.674;2022-11-20T09:17:54;93500.00;;;4.10
10598;BMP180;5346;48.766;8.674;2022-11-20T09:20:22;93504.00;;;3.90
10598;BMP180;5346;48.766;8.674;2022-11-20T09:22:57;93512.00;;;4.00
10598;BMP180;5346;48.766;8.674;2022-11-20T09:25:25;93512.00;;;3.90
10598;BMP180;5346;48.766;8.674;2022-11-20T09:27:56;93510.00;;;3.90
10598;BMP180;5346;48.766;8.674;2022-11-20T09:30:31;93509.00;;;3.90
10598;BMP180;5346;48.766;8.674;2022-11-20T09:32:59;93516.00;;;4.00
10598;BMP180;5346;48.766;8.674;2022-11-20T09:35:27;93518.00;;;4.00
10598;BMP180;5346;48.766;8.674;2022-11-20T09:38:07;93513.00;;;3.90
10598;BMP180;5346;48.766;8.674;2022-11-20T09:40:38;93514.00;;;4.00
10598;BMP180;5346;48.766;8.674;2022-11-20T09:43:29;93519.00;;;3.90
10598;BMP180;5346;48.766;8.674;2022-11-20T09:51:58;93526.00;;;3.90
10598;BMP180;5346;48.766;8.674;2022-11-20T09:54:40;93511.00;;;3.90
10598;BMP180;5346;48.766;8.674;2022-11-20T09:57:26;93522.00;;;3.90
10598;BMP180;5346;48.766;8.674;2022-11-20T10:00:05;93524.00;;;3.80
10598;BMP180;5346;48.766;8.674;2022-11-20T10:05:33;93519.00;;;3.90
10598;BMP180;5346;48.766;8.674;2022-11-20T10:11:12;93523.00;;;3.60
10598;BMP180;5346;48.766;8.674;2022-11-20T10:20:41;93516.00;;;3.80
10598;BMP180;5346;48.766;8.674;2022-11-20T10:26:34;93515.00;;;3.80
10598;BMP180;5346;48.766;8.674;2022-11-20T10:29:16;93511.00;;;3.80
10598;BMP180;5346;48.766;8.674;2022-11-20T10:31:56;93520.00;;;3.70
10598;BMP180;5346;48.766;8.674;2022-11-20T10:37:16;93494.00;;;4.30
10598;BMP180;5346;48.766;8.674;2022-11-20T10:40:14;93489.00;;;5.30
10598;BMP180;5346;48.766;8.674;2022-11-20T10:42:49;93504.00;;;5.70
10598;BMP180;5346;48.766;8.674;2022-11-20T10:50:53;93496.00;;;4.90
10598;BMP180;5346;48.766;8.674;2022-11-20T11:01:49;93497.00;;;4.80
10598;BMP180;5346;48.766;8.674;2022-11-20T11:04:42;93499.00;;;4.80
10598;BMP180;5346;48.766;8.674;2022-11-20T11:07:30;93482.00;;;4.80
10598;BMP180;5346;48.766;8.674;2022-11-20T11:10:01;93479.00;;;5.40
10598;BMP180;5346;48.766;8.674;2022-11-20T11:12:36;93470.00;;;5.70
10598;BMP180;5346;48.766;8.674;2022-11-20T11:15:40;93470.00;;;5.90
10598;BMP180;5346;48.766;8.674;2022-11-20T11:21:57;93458.00;;;6.00
10598;BMP180;5346;48.766;8.674;2022-11-20T11:24:32;93455.00;;;6.00
10598;BMP180;5346;48.766;8.674;2022-11-20T11:27:13;93434.00;;;7.00
10598;BMP180;5346;48.766;8.674;2022-11-20T11:30:03;93425.00;;;7.60
10598;BMP180;5346;48.766;8.674;2022-11-20T11:32:44;93429.00;;;8.10
10598;BMP180;5346;48.766;8.674;2022-11-20T11:35:23;93433.00;;;8.20
10598;BMP180;5346;48.766;8.674;2022-11-20T11:37:53;93446.00;;;7.70
10598;BMP180;5346;48.766;8.674;2022-11-20T11:40:30;93438.00;;;6.90
10598;BMP180;5346;48.766;8.674;2022-11-20T11:43:01;93427.00;;;6.80
10598;BMP180;5346;48.766;8.674;2022-11-20T11:45:36;93428.00;;;7.30
10598;BMP180;5346;48.766;8.674;2022-11-20T11:48:04;93438.00;;;7.00
10598;BMP180;5346;48.766;8.674;2022-11-20T11:50:35;93414.00;;;6.40
10598;BMP180;5346;48.766;8.674;2022-11-20T11:53:23;93431.00;;;6.90
10598;BMP180;5346;48.766;8.674;2022-11-20T11:56:08;93413.00;;;7.00
10598;BMP180;5346;48.766;8.674;2022-11-20T11:58:48;93402.00;;;8.60
10598;BMP180;5346;48.766;8.674;2022-11-20T12:01:37;93391.00;;;9.30
10598;BMP180;5346;48.766;8.674;2022-11-20T12:07:03;93416.00;;;9.50
10598;BMP180;5346;48.766;8.674;2022-11-20T12:10:02;93394.00;;;9.50
10598;BMP180;5346;48.766;8.674;2022-11-20T12:12:41;93395.00;;;8.70
10598;BMP180;5346;48.766;8.674;2022-11-20T12:15:28;93389.00;;;9.40
10598;BMP180;5346;48.766;8.674;2022-11-20T12:18:12;93410.00;;;10.20
10598;BMP180;5346;48.766;8.674;2022-11-20T12:32:36;93411.00;;;7.10
10598;BMP180;5346;48.766;8.674;2022-11-20T12:38:22;93417.00;;;7.00
10598;BMP180;5346;48.766;8.674;2022-11-20T12:47:17;93425.00;;;6.10
10598;BMP180;5346;48.766;8.674;2022-11-20T12:50:08;93429.00;;;5.80
10598;BMP180;5346;48.766;8.674;2022-11-20T12:52:47;93429.00;;;5.70
10598;BMP180;5346;48.766;8.674;2022-11-20T12:58:18;93422.00;;;5.50
10598;BMP180;5346;48.766;8.674;2022-11-20T13:07:04;93432.00;;;5.40
10598;BMP180;5346;48.766;8.674;2022-11-20T13:09:35;93434.00;;;5.60
10598;BMP180;5346;48.766;8.674;2022-11-20T13:12:24;93427.00;;;5.60
10598;BMP180;5346;48.766;8.674;2022-11-20T13:17:58;93423.00;;;5.20
10598;BMP180;5346;48.766;8.674;2022-11-20T13:20:27;93412.00;;;5.40
10598;BMP180;5346;48.766;8.674;2022-11-20T13:23:01;93415.00;;;5.50
10598;BMP180;5346;48.766;8.674;2022-11-20T13:25:37;93409.00;;;5.40
10598;BMP180;5346;48.766;8.674;2022-11-20T13:30:50;93403.00;;;6.30
10598;BMP180;5346;48.766;8.674;2022-11-20T13:33:33;93398.00;;;6.50
10598;BMP180;5346;48.766;8.674;2022-11-20T13:36:04;93391.00;;;6.40
10598;BMP180;5346;48.766;8.674;2022-11-20T13:38:46;93395.00;;;6.10
10598;BMP180;5346;48.766;8.674;2022-11-20T13:41:25;93389.00;;;6.10
10598;BMP180;5346;48.766;8.674;2022-11-20T13:47:21;93377.00;;;5.80
10598;BMP180;5346;48.766;8.674;2022-11-20T13:49:59;93381.00;;;5.60
10598;BMP180;5346;48.766;8.674;2022-11-20T13:55:42;93382.00;;;5.50
10598;BMP180;5346;48.766;8.674;2022-11-20T13:58:44;93382.00;;;5.50
10598;BMP180;5346;48.766;8.674;2022-11-20T14:01:31;93383.00;;;5.50
10598;BMP180;5346;48.766;8.674;2022-11-20T14:04:09;93366.00;;;5.70
10598;BMP180;5346;48.766;8.674;2022-11-20T14:06:48;93369.00;;;5.50
10598;BMP180;5346;48.766;8.674;2022-11-20T14:09:32;93363.00;;;5.30
10598;BMP180;5346;48.766;8.674;2022-11-20T14:12:16;93358.00;;;5.40
10598;BMP180;5346;48.766;8.674;2022-11-20T14:14:58;93377.00;;;5.10
10598;BMP180;5346;48.766;8.674;2022-11-20T14:17:35;93369.00;;;5.00
10598;BMP180;5346;48.766;8.674;2022-11-20T14:20:11;93358.00;;;5.40
10598;BMP180;5346;48.766;8.674;2022-11-20T14:22:50;93363.00;;;5.50
10598;BMP180;5346;48.766;8.674;2022-11-20T14:27:52;93360.00;;;5.50
10598;BMP180;5346;48.766;8.674;2022-11-20T14:30:47;93355.00;;;5.60
10598;BMP180;5346;48.766;8.674;2022-11-20T14:33:16;93350.00;;;5.80
10598;BMP180;5346;48.766;8.674;2022-11-20T14:35:55;93340.00;;;6.30
10598;BMP180;5346;48.766;8.674;2022-11-20T14:38:28;93333.00;;;6.40
10598;BMP180;5346;48.766;8.674;2022-11-20T14:41:18;93328.00;;;6.00
10598;BMP180;5346;48.766;8.674;2022-11-20T14:43:56;93327.00;;;5.60
10598;BMP180;5346;48.766;8.674;2022-11-20T14:46:32;93335.00;;;5.30
10598;BMP180;5346;48.766;8.674;2022-11-20T14:49:01;93331.00;;;5.00
10598;BMP180;5346;48.766;8.674;2022-11-20T14:51:38;93334.00;;;4.80
10598;BMP180;5346;48.766;8.674;2022-11-20T14:54:18;93336.00;;;4.80
10598;BMP180;5346;48.766;8.674;2022-11-20T14:57:00;93331.00;;;4.60
10598;BMP180;5346;48.766;8.674;2022-11-20T14:59:34;93328.00;;;4.40
10598;BMP180;5346;48.766;8.674;2022-11-20T15:02:08;93322.00;;;4.40
10598;BMP180;5346;48.766;8.674;2022-11-20T15:04:49;93316.00;;;4.20
10598;BMP180;5346;48.766;8.674;2022-11-20T15:07:34;93313.00;;;4.30
10598;BMP180;5346;48.766;8.674;2022-11-20T15:10:10;93315.00;;;3.90
10598;BMP180;5346;48.766;8.674;2022-11-20T15:13:05;93311.00;;;3.80
10598;BMP180;5346;48.766;8.674;2022-11-20T15:15:55;93316.00;;;3.70
10598;BMP180;5346;48.766;8.674;2022-11-20T15:18:33;93309.00;;;3.50
10598;BMP180;5346;48.766;8.674;2022-11-20T15:21:16;93306.00;;;3.60
10598;BMP180;5346;48.766;8.674;2022-11-20T15:23:45;93304.00;;;3.50
10598;BMP180;5346;48.766;8.674;2022-11-20T15:26:26;93313.00;;;3.50
10598;BMP180;5346;48.766;8.674;2022-11-20T15:28:54;93294.00;;;3.60
10598;BMP180;5346;48.766;8.674;2022-11-20T15:31:29;93305.00;;;3.60
10598;BMP180;5346;48.766;8.674;2022-11-20T15:33:57;93300.00;;;3.40
10598;BMP180;5346;48.766;8.674;2022-11-20T15:36:25;93298.00;;;3.40
10598;BMP180;5346;48.766;8.674;2022-11-20T15:38:59;93295.00;;;3.20
10598;BMP180;5346;48.766;8.674;2022-11-20T15:41:27;93294.00;;;3.30
10598;BMP180;5346;48.766;8.674;2022-11-20T15:43:54;93289.00;;;3.20
10598;BMP180;5346;48.766;8.674;2022-11-20T15:46:32;93292.00;;;3.10
10598;BMP180;5346;48.766;8.674;2022-11-20T15:49:06;93297.00;;;3.10
10598;BMP180;5346;48.766;8.674;2022-11-20T15:51:48;93295.00;;;3.10
10598;BMP180;5346;48.766;8.674;2022-11-20T15:54:20;93290.00;;;3.10
10598;BMP180;5346;48.766;8.674;2022-11-20T15:56:55;93291.00;;;3.30
10598;BMP180;5346;48.766;8.674;2022-11-20T15:59:22;93293.00;;;3.40
10598;BMP180;5346;48.766;8.674;2022-11-20T16:01:50;93285.00;;;3.30
10598;BMP180;5346;48.766;8.674;2022-11-20T16:04:24;93284.00;;;3.50
10598;BMP180;5346;48.766;8.674;2022-11-20T16:06:52;93294.00;;;3.40
10598;BMP180;5346;48.766;8.674;2022-11-20T16:09:20;93279.00;;;3.50
10598;BMP180;5346;48.766;8.674;2022-11-20T16:12:10;93287.00;;;3.60
10598;BMP180;5346;48.766;8.674;2022-11-20T16:15:17;93291.00;;;3.70
10598;BMP180;5346;48.766;8.674;2022-11-20T16:18:12;93282.00;;;3.60
10598;BMP180;5346;48.766;8.674;2022-11-20T16:20:40;93280.00;;;3.60
10598;BMP180;5346;48.766;8.674;2022-11-20T16:23:08;93286.00;;;3.70
10598;BMP180;5346;48.766;8.674;2022-11-20T16:25:43;93273.00;;;3.70
10598;BMP180;5346;48.766;8.674;2022-11-20T16:28:11;93278.00;;;3.90
10598;BMP180;5346;48.766;8.674;2022-11-20T16:30:45;93274.00;;;3.80
10598;BMP180;5346;48.766;8.674;2022-11-20T16:33:19;93277.00;;;3.70
10598;BMP180;5346;48.766;8.674;2022-11-20T16:35:46;93276.00;;;3.90
10598;BMP180;5346;48.766;8.674;2022-11-20T16:38:14;93269.00;;;3.80
10598;BMP180;5346;48.766;8.674;2022-11-20T16:40:48;93265.00;;;3.80
10598;BMP180;5346;48.766;8.674;2022-11-20T16:43:16;93254.00;;;3.80
10598;BMP180;5346;48.766;8.674;2022-11-20T16:45:44;93258.00;;;3.80